Time;durP1;ratioP1;P1;durP2;ratioP2;P2;SDS_P1;SDS_P2;PMS_P1;PMS_P2;Temp;Humidity;BMP_temperature;BMP_pressure;BME280_temperature;BME280_humidity;BME280_pressure;Samples;Min_cycle;Max_cycle;Signal;HPM_P1;HPM_P2
2021/05/03 08:37:54;;;;;;;4.90;2.20;;;10.10;92.50;;;;;;6063030;23;20045;31
2021/05/03 11:35:04;;;;;;;3.73;1.90;;;18.20;46.70;;;;;;3535817;40;20412;-83
2021/05/03 11:38:07;;;;;;;3.60;1.90;;;20.40;42.20;;;;;;3673495;23;20064;-91
2021/05/03 12:04:01;;;;;;;5.07;2.42;;;20.00;40.30;;;;;;789823;23;20377;-89
2021/05/03 12:06:47;;;;;;;4.40;2.08;;;20.30;38.90;;;;;;1274012;23;20275;-90
2021/05/03 12:15:34;;;;;;;5.20;2.20;;;18.00;44.10;;;;;;1197294;23;20226;-88
2021/05/03 12:42:48;;;;;;;6.40;2.63;;;17.00;46.50;;;;;;3005315;23;20258;-82
2021/05/03 13:05:08;;;;;;;6.00;2.30;;;13.80;59.20;;;;;;1573637;23;20255;-95
2021/05/03 13:31:44;;;;;;;6.53;2.42;;;16.10;47.50;;;;;;1287474;23;20219;-90
2021/05/03 13:43:43;;;;;;;4.13;2.03;;;16.30;46.40;;;;;;4585422;23;21276;-92
2021/05/03 13:46:46;;;;;;;4.35;2.15;;;17.60;44.10;;;;;;1193608;23;21342;-91
2021/05/03 13:52:11;;;;;;;3.88;2.00;;;18.80;40.80;;;;;;1729806;23;20050;-86
2021/05/03 13:54:39;;;;;;;4.47;2.13;;;19.30;40.40;;;;;;3567886;40;20065;-86
2021/05/03 13:57:08;;;;;;;7.07;2.15;;;20.70;37.90;;;;;;3579871;40;20048;-86
2021/05/03 13:59:36;;;;;;;;;;;21.50;36.80;;;;;;3571320;40;20041;-87
2021/05/03 14:02:08;;;;;;;3.65;1.90;;;21.40;37.10;;;;;;3567079;40;19944;-88
2021/05/03 14:04:37;;;;;;;7.10;2.47;;;21.60;36.30;;;;;;3575174;40;20036;-87
2021/05/03 14:07:09;;;;;;;4.15;2.85;;;20.60;37.90;;;;;;3573089;40;20040;-88
2021/05/03 14:09:53;;;;;;;4.13;1.90;;;21.10;36.20;;;;;;3571596;40;20061;-86
2021/05/03 14:12:29;;;;;;;3.55;1.90;;;21.60;36.40;;;;;;3581892;40;20048;-88
2021/05/03 14:39:44;;;;;;;5.72;2.50;;;15.90;44.70;;;;;;3696595;23;20070;-86
2021/05/03 14:42:16;;;;;;;10.07;2.03;;;18.40;41.40;;;;;;3555622;40;20054;-89
2021/05/03 14:44:52;;;;;;;3.17;2.10;;;20.50;38.00;;;;;;3977128;23;20058;-87
2021/05/03 14:50:30;;;;;;;3.88;2.20;;;18.50;38.80;;;;;;3793547;23;20266;-86
2021/05/03 14:53:11;;;;;;;5.07;2.05;;;16.30;42.40;;;;;;3535418;40;20078;-85
2021/05/03 14:55:40;;;;;;;3.47;1.98;;;16.20;42.90;;;;;;3544600;40;20055;-85
2021/05/03 14:58:11;;;;;;;7.68;2.13;;;15.70;42.70;;;;;;3561069;40;20033;-84
2021/05/03 15:03:34;;;;;;;4.80;2.08;;;17.00;43.60;;;;;;3570178;40;20054;-88
2021/05/03 15:06:03;;;;;;;4.60;2.10;;;18.50;39.50;;;;;;3582014;23;20049;-86
2021/05/03 15:08:30;;;;;;;;;;;18.60;39.90;;;;;;3543628;40;20039;-87
2021/05/03 15:10:58;;;;;;;5.75;2.20;;;18.80;39.50;;;;;;3534359;40;19948;-86
2021/05/03 15:13:35;;;;;;;9.63;3.30;;;18.40;39.30;;;;;;3538420;40;20071;-86
2021/05/03 15:16:11;;;;;;;6.47;2.15;;;18.30;40.50;;;;;;3529823;40;20403;-86
2021/05/03 15:18:51;;;;;;;4.18;2.03;;;19.70;38.90;;;;;;3531625;40;20091;-86
2021/05/03 15:21:23;;;;;;;4.93;2.50;;;20.50;37.50;;;;;;3535466;40;20161;-85
2021/05/03 15:23:52;;;;;;;4.00;1.88;;;21.00;36.50;;;;;;3529052;40;20086;-86
2021/05/03 15:26:23;;;;;;;5.57;2.20;;;19.60;37.00;;;;;;3539649;40;20063;-87
2021/05/03 15:28:59;;;;;;;5.10;2.20;;;18.10;38.30;;;;;;3533232;40;20331;-88
2021/05/03 15:31:43;;;;;;;3.33;1.90;;;17.50;40.00;;;;;;3541228;40;20053;-87
2021/05/03 15:34:12;;;;;;;11.55;2.42;;;16.80;40.00;;;;;;3527018;40;20031;-88
2021/05/03 15:36:49;;;;;;;3.20;1.60;;;16.20;41.10;;;;;;3533675;40;20035;-88
2021/05/03 15:39:25;;;;;;;3.80;1.70;;;15.90;42.00;;;;;;3521901;40;20103;-88
2021/05/03 15:42:01;;;;;;;3.17;1.88;;;15.70;42.50;;;;;;3495375;41;20040;-87
2021/05/03 15:44:30;;;;;;;3.10;1.90;;;15.50;43.20;;;;;;3485388;41;20045;-87
2021/05/03 15:47:03;;;;;;;5.63;2.45;;;15.20;43.70;;;;;;3494854;41;20034;-85
2021/05/03 15:58:37;;;;;;;3.95;2.10;;;15.20;44.60;;;;;;3559919;40;20294;-86
2021/05/03 16:07:23;;;;;;;8.73;2.13;;;15.30;44.50;;;;;;4211331;23;20078;-88
2021/05/03 16:09:54;;;;;;;6.32;2.63;;;15.80;44.40;;;;;;3547090;40;20061;-86
2021/05/03 16:12:26;;;;;;;4.47;2.03;;;16.00;43.70;;;;;;3563943;40;20025;-87
2021/05/03 16:15:02;;;;;;;5.80;2.10;;;16.40;44.20;;;;;;3563310;40;20037;-87
2021/05/03 16:17:43;;;;;;;5.13;1.77;;;17.60;41.30;;;;;;3542030;40;20039;-86
2021/05/03 16:20:16;;;;;;;5.00;1.73;;;19.20;39.40;;;;;;3530889;40;20046;-84
2021/05/03 16:22:49;;;;;;;7.25;2.33;;;20.80;37.50;;;;;;3530337;40;20064;-87
2021/05/03 16:25:21;;;;;;;3.15;1.90;;;21.40;35.60;;;;;;3530134;40;20095;-86
2021/05/03 16:28:09;;;;;;;4.25;2.05;;;19.50;36.10;;;;;;3525788;40;20028;-86
2021/05/03 16:46:42;;;;;;;7.13;2.25;;;13.70;48.00;;;;;;3530325;40;20027;-85
2021/05/03 16:49:27;;;;;;;3.85;2.30;;;13.60;48.70;;;;;;3504350;41;20040;-85
2021/05/03 17:11:21;;;;;;;4.65;1.98;;;14.50;45.90;;;;;;5974870;23;20018;-81
2021/05/03 17:23:03;;;;;;;5.40;1.80;;;13.60;48.90;;;;;;3720107;23;20054;-85
2021/05/03 17:25:37;;;;;;;2.97;1.70;;;13.70;48.70;;;;;;3538576;40;20436;-85
2021/05/03 17:28:10;;;;;;;5.80;1.55;;;14.10;48.10;;;;;;3547053;40;20045;-84
2021/05/03 17:30:41;;;;;;;3.22;1.58;;;14.50;47.40;;;;;;3547322;40;20030;-85
2021/05/03 17:33:24;;;;;;;4.50;1.85;;;14.60;47.40;;;;;;3535159;40;20351;-85
2021/05/03 17:41:49;;;;;;;2.92;1.40;;;13.80;48.80;;;;;;3791073;23;20067;-85
2021/05/03 17:45:16;;;;;;;3.47;1.50;;;13.50;50.50;;;;;;3543518;40;20034;-86
2021/05/03 17:57:01;;;;;;;4.43;1.45;;;13.20;50.20;;;;;;4907013;23;20046;-91
2021/05/03 18:15:27;;;;;;;5.93;2.53;;;13.00;50.00;;;;;;3569587;39;20049;-87
2021/05/03 18:18:09;;;;;;;7.50;3.05;;;13.00;50.20;;;;;;3551363;40;20030;-87
2021/05/03 18:21:46;;;;;;;4.28;2.10;;;12.90;50.60;;;;;;3551834;40;20106;-84
2021/05/03 18:24:26;;;;;;;14.00;4.93;;;12.70;51.10;;;;;;3525600;40;20063;-85
2021/05/03 18:27:03;;;;;;;11.57;5.13;;;12.60;52.00;;;;;;3526365;40;20035;-85
2021/05/03 18:30:19;;;;;;;17.45;6.85;;;12.50;52.20;;;;;;3542939;40;20047;-85
2021/05/03 18:35:43;;;;;;;;;;;12.30;53.30;;;;;;3836442;23;20066;-87
2021/05/03 18:38:43;;;;;;;10.38;4.40;;;12.30;53.60;;;;;;3546703;40;19937;-88
2021/05/03 18:44:22;;;;;;;4.47;2.20;;;12.20;54.30;;;;;;3562706;40;20050;-86
2021/05/03 18:49:49;;;;;;;5.65;2.15;;;11.70;55.90;;;;;;3552292;40;20027;-84
2021/05/03 19:01:55;;;;;;;4.72;2.20;;;11.90;56.10;;;;;;3625161;23;20062;-84
2021/05/03 19:04:26;;;;;;;7.00;2.45;;;12.00;55.80;;;;;;3554157;40;20034;-82
2021/05/03 19:07:20;;;;;;;8.50;3.30;;;12.00;55.70;;;;;;3561263;40;20034;-84
2021/05/03 19:09:51;;;;;;;9.52;2.72;;;12.10;55.30;;;;;;3554920;40;20062;-85
2021/05/03 19:12:24;;;;;;;7.75;3.17;;;12.00;55.30;;;;;;3546224;40;20034;-85
2021/05/03 19:15:01;;;;;;;7.85;2.45;;;12.00;55.60;;;;;;3546321;40;20051;-85
2021/05/03 19:17:49;;;;;;;5.90;3.03;;;11.90;55.10;;;;;;3543877;40;20038;-84
2021/05/03 19:20:49;;;;;;;7.55;2.35;;;12.00;55.10;;;;;;3537885;40;20027;-84
2021/05/03 19:41:25;;;;;;;4.10;1.50;;;11.50;56.60;;;;;;633771;23;20273;-90
2021/05/03 20:46:15;;;;;;;5.05;1.77;;;10.40;67.50;;;;;;3547221;40;20046;-88
2021/05/03 20:48:52;;;;;;;6.13;2.20;;;10.40;67.80;;;;;;3555190;40;20046;-86
2021/05/03 20:52:22;;;;;;;7.38;1.80;;;10.50;67.80;;;;;;3562498;40;20042;-85
2021/05/03 20:54:56;;;;;;;7.88;2.20;;;10.50;67.30;;;;;;3539418;40;20030;-90
2021/05/03 20:57:30;;;;;;;4.07;1.52;;;10.50;67.50;;;;;;3563557;40;20040;-85
2021/05/03 20:59:59;;;;;;;5.53;2.55;;;10.40;67.30;;;;;;3565088;40;20036;-83
2021/05/03 21:02:43;;;;;;;6.22;2.63;;;10.40;66.60;;;;;;3549542;40;20022;-84
2021/05/03 21:05:15;;;;;;;8.30;2.05;;;10.40;66.30;;;;;;3547272;40;20033;-88
2021/05/03 21:08:08;;;;;;;10.90;2.40;;;10.40;66.00;;;;;;3547402;40;20043;-85
2021/05/03 21:10:42;;;;;;;5.85;1.73;;;10.50;65.30;;;;;;3547384;40;20066;-87
2021/05/03 21:19:41;;;;;;;6.72;2.42;;;10.50;64.00;;;;;;3532629;40;20036;-84
2021/05/03 21:22:11;;;;;;;4.13;1.98;;;10.50;63.80;;;;;;3534727;40;20043;-84
2021/05/03 21:28:55;;;;;;;4.78;2.20;;;10.50;63.60;;;;;;3523863;40;20028;-86
2021/05/03 21:31:25;;;;;;;6.68;2.65;;;10.50;63.60;;;;;;3521704;40;20024;-85
2021/05/03 21:33:56;;;;;;;4.03;2.10;;;10.50;63.70;;;;;;3520421;40;20050;-84
2021/05/03 21:36:30;;;;;;;6.03;2.75;;;10.40;64.10;;;;;;3535383;40;20027;-86
2021/05/03 21:39:03;;;;;;;5.53;2.47;;;10.40;63.90;;;;;;3544801;40;20050;-86
2021/05/03 21:41:33;;;;;;;8.10;2.90;;;10.40;64.10;;;;;;3542553;40;20039;-89
2021/05/03 21:44:03;;;;;;;5.63;2.97;;;10.40;64.40;;;;;;3541788;40;20026;-84
2021/05/03 21:47:04;;;;;;;6.57;2.63;;;10.40;64.70;;;;;;3533667;40;20039;-84
2021/05/03 21:49:42;;;;;;;8.60;2.65;;;10.40;64.70;;;;;;3526193;40;20042;-83
2021/05/03 21:52:14;;;;;;;5.35;2.70;;;10.30;65.00;;;;;;3511304;41;20040;-83
2021/05/03 21:54:44;;;;;;;5.53;2.80;;;10.30;65.30;;;;;;3504688;41;20040;-84
2021/05/03 21:57:15;;;;;;;7.47;2.90;;;10.20;65.40;;;;;;3504386;41;20070;-83
2021/05/03 21:59:45;;;;;;;7.97;3.00;;;10.20;65.70;;;;;;3505022;41;20060;-85
2021/05/03 22:06:07;;;;;;;6.90;2.58;;;10.10;66.10;;;;;;3504997;41;19947;-83
2021/05/03 22:08:43;;;;;;;5.10;3.40;;;10.10;67.00;;;;;;3496344;41;20039;-86
2021/05/03 22:11:18;;;;;;;10.68;3.05;;;9.90;67.40;;;;;;3504777;41;20032;-83
2021/05/03 22:13:56;;;;;;;6.15;3.45;;;10.00;67.70;;;;;;3503895;41;20156;-86
2021/05/03 22:16:56;;;;;;;6.22;3.00;;;9.90;68.00;;;;;;3503582;41;20037;-87
2021/05/03 22:19:37;;;;;;;6.00;2.70;;;9.90;68.60;;;;;;3504000;41;20033;-83
2021/05/03 22:22:30;;;;;;;6.45;2.55;;;9.80;69.50;;;;;;3496838;40;20048;-85
2021/05/03 22:25:21;;;;;;;7.30;3.30;;;9.80;69.20;;;;;;3522545;40;20043;-86
2021/05/03 22:28:16;;;;;;;5.72;2.65;;;9.80;69.80;;;;;;3533061;40;20046;-84
2021/05/03 22:30:45;;;;;;;6.13;2.80;;;9.70;70.60;;;;;;3523784;40;20051;-86
2021/05/03 22:33:14;;;;;;;4.32;2.35;;;9.70;71.40;;;;;;3503200;41;20032;-83
2021/05/03 22:35:42;;;;;;;;;;;9.70;71.50;;;;;;3503686;41;20029;-83
2021/05/03 22:38:24;;;;;;;6.57;2.28;;;9.60;72.10;;;;;;3511584;41;19939;-85
2021/05/03 23:17:24;;;;;;;6.20;3.42;;;9.50;77.60;;;;;;3541228;40;20030;-86
2021/05/03 23:20:00;;;;;;;9.32;3.90;;;9.70;76.70;;;;;;3540912;40;20050;-85
2021/05/03 23:22:33;;;;;;;6.47;3.20;;;9.60;76.80;;;;;;3534981;40;20039;-84
2021/05/03 23:25:05;;;;;;;6.70;3.03;;;9.60;77.70;;;;;;3534494;40;20054;-85
2021/05/03 23:27:36;;;;;;;8.18;3.50;;;9.60;77.60;;;;;;3534342;40;20023;-85
2021/05/03 23:30:06;;;;;;;7.80;3.63;;;9.50;78.60;;;;;;3533977;40;20031;-89
2021/05/03 23:32:36;;;;;;;6.32;3.08;;;9.60;79.10;;;;;;3534680;40;20026;-84
2021/05/03 23:35:10;;;;;;;11.50;3.42;;;9.40;80.30;;;;;;3533317;40;20062;-84
2021/05/03 23:37:41;;;;;;;5.70;3.20;;;9.50;81.40;;;;;;3535837;40;20059;-89
2021/05/03 23:40:10;;;;;;;10.70;3.22;;;9.50;83.00;;;;;;3534348;40;20042;-83
2021/05/03 23:54:19;;;;;;;5.63;3.22;;;9.20;88.30;;;;;;3532825;40;20046;-91
2021/05/03 23:56:49;;;;;;;7.63;3.38;;;9.20;89.00;;;;;;3533447;40;20054;-83
2021/05/03 23:59:18;;;;;;;;;;;9.10;89.90;;;;;;3534923;40;20035;-84
